sensor_id;sensor_type;location;lat;lon;timestamp;P1;durP1;ratioP1;P2;durP2;ratioP2
1679;SDS011;838;51.794;12.258;2024-03-02T00:02:24;31.20;;;20.83;;
1679;SDS011;838;51.794;12.258;2024-03-02T00:04:51;34.40;;;20.07;;
1679;SDS011;838;51.794;12.258;2024-03-02T00:07:16;33.27;;;19.80;;
1679;SDS011;838;51.794;12.258;2024-03-02T00:09:43;34.77;;;19.37;;
1679;SDS011;838;51.794;12.258;2024-03-02T00:12:11;35.37;;;20.63;;
1679;SDS011;838;51.794;12.258;2024-03-02T00:14:40;32.20;;;20.03;;
1679;SDS011;838;51.794;12.258;2024-03-02T00:17:06;39.47;;;22.27;;
1679;SDS011;838;51.794;12.258;2024-03-02T00:19:50;30.47;;;20.03;;
1679;SDS011;838;51.794;12.258;2024-03-02T00:22:17;38.07;;;20.67;;
1679;SDS011;838;51.794;12.258;2024-03-02T00:24:43;38.90;;;20.73;;
1679;SDS011;838;51.794;12.258;2024-03-02T00:27:09;33.70;;;19.67;;
1679;SDS011;838;51.794;12.258;2024-03-02T00:29:40;30.73;;;18.17;;
1679;SDS011;838;51.794;12.258;2024-03-02T00:32:09;27.90;;;16.80;;
1679;SDS011;838;51.794;12.258;2024-03-02T00:34:39;31.83;;;19.50;;
1679;SDS011;838;51.794;12.258;2024-03-02T00:37:05;32.10;;;19.30;;
1679;SDS011;838;51.794;12.258;2024-03-02T00:39:31;33.93;;;20.20;;
1679;SDS011;838;51.794;12.258;2024-03-02T00:41:57;34.47;;;20.10;;
1679;SDS011;838;51.794;12.258;2024-03-02T00:44:23;33.87;;;20.47;;
1679;SDS011;838;51.794;12.258;2024-03-02T00:46:51;34.80;;;20.67;;
1679;SDS011;838;51.794;12.258;2024-03-02T00:49:20;37.60;;;21.10;;
1679;SDS011;838;51.794;12.258;2024-03-02T00:51:50;35.33;;;21.00;;
1679;SDS011;838;51.794;12.258;2024-03-02T00:54:21;32.70;;;20.70;;
1679;SDS011;838;51.794;12.258;2024-03-02T00:56:49;33.07;;;20.00;;
1679;SDS011;838;51.794;12.258;2024-03-02T00:59:15;32.10;;;20.10;;
1679;SDS011;838;51.794;12.258;2024-03-02T01:01:41;35.23;;;18.83;;
1679;SDS011;838;51.794;12.258;2024-03-02T01:04:08;34.87;;;19.70;;
1679;SDS011;838;51.794;12.258;2024-03-02T01:06:37;32.60;;;19.93;;
1679;SDS011;838;51.794;12.258;2024-03-02T01:09:03;35.33;;;20.00;;
1679;SDS011;838;51.794;12.258;2024-03-02T01:11:29;34.40;;;20.33;;
1679;SDS011;838;51.794;12.258;2024-03-02T01:13:55;33.70;;;20.67;;
1679;SDS011;838;51.794;12.258;2024-03-02T01:16:21;31.73;;;20.00;;
1679;SDS011;838;51.794;12.258;2024-03-02T01:18:46;38.73;;;22.67;;
1679;SDS011;838;51.794;12.258;2024-03-02T01:21:12;34.20;;;21.20;;
1679;SDS011;838;51.794;12.258;2024-03-02T01:23:38;41.57;;;21.73;;
1679;SDS011;838;51.794;12.258;2024-03-02T01:26:04;34.50;;;20.70;;
1679;SDS011;838;51.794;12.258;2024-03-02T01:28:29;45.63;;;21.80;;
1679;SDS011;838;51.794;12.258;2024-03-02T01:30:55;38.87;;;21.40;;
1679;SDS011;838;51.794;12.258;2024-03-02T01:33:21;36.93;;;21.67;;
1679;SDS011;838;51.794;12.258;2024-03-02T01:35:46;36.07;;;21.40;;
1679;SDS011;838;51.794;12.258;2024-03-02T01:38:12;34.20;;;20.60;;
1679;SDS011;838;51.794;12.258;2024-03-02T01:40:38;33.90;;;21.17;;
1679;SDS011;838;51.794;12.258;2024-03-02T01:43:04;34.93;;;20.23;;
1679;SDS011;838;51.794;12.258;2024-03-02T01:45:31;36.73;;;22.63;;
1679;SDS011;838;51.794;12.258;2024-03-02T01:47:57;33.83;;;20.90;;
1679;SDS011;838;51.794;12.258;2024-03-02T01:50:31;33.00;;;20.70;;
1679;SDS011;838;51.794;12.258;2024-03-02T01:52:57;31.60;;;20.80;;
1679;SDS011;838;51.794;12.258;2024-03-02T01:55:24;33.40;;;20.57;;
1679;SDS011;838;51.794;12.258;2024-03-02T01:57:50;30.07;;;18.70;;
1679;SDS011;838;51.794;12.258;2024-03-02T02:00:17;28.90;;;17.77;;
1679;SDS011;838;51.794;12.258;2024-03-02T02:02:44;33.70;;;21.13;;
1679;SDS011;838;51.794;12.258;2024-03-02T02:05:11;32.93;;;20.50;;
1679;SDS011;838;51.794;12.258;2024-03-02T02:07:37;36.67;;;22.30;;
1679;SDS011;838;51.794;12.258;2024-03-02T02:10:03;31.97;;;20.57;;
1679;SDS011;838;51.794;12.258;2024-03-02T02:12:29;32.77;;;21.13;;
1679;SDS011;838;51.794;12.258;2024-03-02T02:14:55;38.80;;;22.00;;
1679;SDS011;838;51.794;12.258;2024-03-02T02:17:21;31.50;;;20.30;;
1679;SDS011;838;51.794;12.258;2024-03-02T02:19:46;34.73;;;21.07;;
1679;SDS011;838;51.794;12.258;2024-03-02T02:22:12;38.33;;;20.57;;
1679;SDS011;838;51.794;12.258;2024-03-02T02:24:41;35.17;;;20.93;;
1679;SDS011;838;51.794;12.258;2024-03-02T02:27:08;32.73;;;22.10;;
1679;SDS011;838;51.794;12.258;2024-03-02T02:29:34;36.83;;;20.63;;
1679;SDS011;838;51.794;12.258;2024-03-02T02:32:01;35.70;;;19.60;;
1679;SDS011;838;51.794;12.258;2024-03-02T02:34:27;35.70;;;20.17;;
1679;SDS011;838;51.794;12.258;2024-03-02T02:36:53;35.60;;;20.00;;
1679;SDS011;838;51.794;12.258;2024-03-02T02:39:20;30.53;;;18.70;;
1679;SDS011;838;51.794;12.258;2024-03-02T02:41:50;42.47;;;22.03;;
1679;SDS011;838;51.794;12.258;2024-03-02T02:44:15;30.30;;;19.00;;
1679;SDS011;838;51.794;12.258;2024-03-02T02:46:41;42.87;;;21.40;;
1679;SDS011;838;51.794;12.258;2024-03-02T02:49:07;31.60;;;18.60;;
1679;SDS011;838;51.794;12.258;2024-03-02T02:51:33;36.03;;;21.47;;
1679;SDS011;838;51.794;12.258;2024-03-02T02:53:58;35.13;;;20.73;;
1679;SDS011;838;51.794;12.258;2024-03-02T02:56:24;33.57;;;21.20;;
1679;SDS011;838;51.794;12.258;2024-03-02T02:58:50;41.77;;;22.30;;
1679;SDS011;838;51.794;12.258;2024-03-02T03:01:16;38.83;;;21.73;;
1679;SDS011;838;51.794;12.258;2024-03-02T03:03:43;44.23;;;23.67;;
1679;SDS011;838;51.794;12.258;2024-03-02T03:06:09;42.67;;;24.73;;
1679;SDS011;838;51.794;12.258;2024-03-02T03:08:35;45.63;;;26.13;;
1679;SDS011;838;51.794;12.258;2024-03-02T03:11:01;47.33;;;27.33;;
1679;SDS011;838;51.794;12.258;2024-03-02T03:13:27;44.13;;;24.20;;
1679;SDS011;838;51.794;12.258;2024-03-02T03:15:53;46.37;;;27.10;;
1679;SDS011;838;51.794;12.258;2024-03-02T03:18:19;43.97;;;26.27;;
1679;SDS011;838;51.794;12.258;2024-03-02T03:20:44;44.40;;;26.77;;
1679;SDS011;838;51.794;12.258;2024-03-02T03:23:11;41.30;;;25.70;;
1679;SDS011;838;51.794;12.258;2024-03-02T03:25:40;43.87;;;25.13;;
1679;SDS011;838;51.794;12.258;2024-03-02T03:28:07;45.77;;;24.97;;
1679;SDS011;838;51.794;12.258;2024-03-02T03:30:35;41.07;;;24.67;;
1679;SDS011;838;51.794;12.258;2024-03-02T03:33:04;46.20;;;25.80;;
1679;SDS011;838;51.794;12.258;2024-03-02T03:35:33;41.20;;;23.67;;
1679;SDS011;838;51.794;12.258;2024-03-02T03:37:58;42.73;;;24.43;;
1679;SDS011;838;51.794;12.258;2024-03-02T03:40:24;43.70;;;24.90;;
1679;SDS011;838;51.794;12.258;2024-03-02T03:42:51;39.00;;;24.20;;
1679;SDS011;838;51.794;12.258;2024-03-02T03:45:16;43.30;;;23.90;;
1679;SDS011;838;51.794;12.258;2024-03-02T03:47:42;44.90;;;24.17;;
1679;SDS011;838;51.794;12.258;2024-03-02T03:50:08;34.70;;;21.97;;
1679;SDS011;838;51.794;12.258;2024-03-02T03:52:34;43.60;;;23.30;;
1679;SDS011;838;51.794;12.258;2024-03-02T03:55:00;36.87;;;23.30;;
1679;SDS011;838;51.794;12.258;2024-03-02T03:57:26;42.80;;;26.57;;
1679;SDS011;838;51.794;12.258;2024-03-02T03:59:52;36.90;;;22.97;;
1679;SDS011;838;51.794;12.258;2024-03-02T04:02:18;42.63;;;23.20;;
1679;SDS011;838;51.794;12.258;2024-03-02T04:04:44;39.10;;;23.30;;
1679;SDS011;838;51.794;12.258;2024-03-02T04:07:11;43.63;;;25.77;;
1679;SDS011;838;51.794;12.258;2024-03-02T04:09:39;36.60;;;21.93;;
1679;SDS011;838;51.794;12.258;2024-03-02T04:12:05;34.70;;;22.33;;
1679;SDS011;838;51.794;12.258;2024-03-02T04:14:31;42.57;;;25.20;;
1679;SDS011;838;51.794;12.258;2024-03-02T04:16:56;35.83;;;22.07;;
1679;SDS011;838;51.794;12.258;2024-03-02T04:19:22;37.60;;;23.40;;
1679;SDS011;838;51.794;12.258;2024-03-02T04:21:48;32.93;;;22.43;;
1679;SDS011;838;51.794;12.258;2024-03-02T04:24:13;40.67;;;23.63;;
1679;SDS011;838;51.794;12.258;2024-03-02T04:26:39;36.97;;;21.90;;
1679;SDS011;838;51.794;12.258;2024-03-02T04:29:04;34.40;;;21.97;;
1679;SDS011;838;51.794;12.258;2024-03-02T04:31:30;38.00;;;22.00;;
1679;SDS011;838;51.794;12.258;2024-03-02T04:33:56;35.80;;;21.23;;
1679;SDS011;838;51.794;12.258;2024-03-02T04:36:21;37.97;;;20.70;;
1679;SDS011;838;51.794;12.258;2024-03-02T04:38:48;38.47;;;21.87;;
1679;SDS011;838;51.794;12.258;2024-03-02T04:41:14;39.00;;;23.87;;
1679;SDS011;838;51.794;12.258;2024-03-02T04:43:40;37.67;;;22.40;;
1679;SDS011;838;51.794;12.258;2024-03-02T04:46:06;43.80;;;23.30;;
1679;SDS011;838;51.794;12.258;2024-03-02T04:48:32;38.30;;;23.80;;
1679;SDS011;838;51.794;12.258;2024-03-02T04:50:59;33.90;;;20.37;;
1679;SDS011;838;51.794;12.258;2024-03-02T04:53:25;41.70;;;22.50;;
1679;SDS011;838;51.794;12.258;2024-03-02T04:55:50;33.83;;;21.87;;
1679;SDS011;838;51.794;12.258;2024-03-02T04:58:48;35.67;;;22.23;;
1679;SDS011;838;51.794;12.258;2024-03-02T05:01:14;41.27;;;24.60;;
1679;SDS011;838;51.794;12.258;2024-03-02T05:03:42;41.03;;;25.23;;
1679;SDS011;838;51.794;12.258;2024-03-02T05:06:08;39.27;;;23.37;;
1679;SDS011;838;51.794;12.258;2024-03-02T05:08:33;39.10;;;23.40;;
1679;SDS011;838;51.794;12.258;2024-03-02T05:10:59;41.20;;;24.33;;
1679;SDS011;838;51.794;12.258;2024-03-02T05:13:45;41.10;;;23.80;;
1679;SDS011;838;51.794;12.258;2024-03-02T05:16:11;40.73;;;25.13;;
1679;SDS011;838;51.794;12.258;2024-03-02T05:18:37;46.87;;;25.00;;
1679;SDS011;838;51.794;12.258;2024-03-02T05:21:03;50.87;;;23.57;;
1679;SDS011;838;51.794;12.258;2024-03-02T05:23:29;43.43;;;25.97;;
1679;SDS011;838;51.794;12.258;2024-03-02T05:25:54;45.33;;;25.73;;
1679;SDS011;838;51.794;12.258;2024-03-02T05:28:20;50.97;;;24.57;;
1679;SDS011;838;51.794;12.258;2024-03-02T05:30:47;47.83;;;26.13;;
1679;SDS011;838;51.794;12.258;2024-03-02T05:33:12;36.97;;;24.90;;
1679;SDS011;838;51.794;12.258;2024-03-02T05:35:38;41.13;;;26.37;;
1679;SDS011;838;51.794;12.258;2024-03-02T05:38:04;45.90;;;25.57;;
1679;SDS011;838;51.794;12.258;2024-03-02T05:40:30;37.47;;;23.63;;
1679;SDS011;838;51.794;12.258;2024-03-02T05:42:56;43.10;;;25.90;;
1679;SDS011;838;51.794;12.258;2024-03-02T05:45:21;36.80;;;24.20;;
1679;SDS011;838;51.794;12.258;2024-03-02T05:47:47;39.73;;;22.93;;
1679;SDS011;838;51.794;12.258;2024-03-02T05:50:13;38.40;;;23.20;;
1679;SDS011;838;51.794;12.258;2024-03-02T05:52:39;39.43;;;24.20;;
1679;SDS011;838;51.794;12.258;2024-03-02T05:55:04;40.90;;;23.37;;
1679;SDS011;838;51.794;12.258;2024-03-02T05:57:30;46.23;;;24.80;;
1679;SDS011;838;51.794;12.258;2024-03-02T06:00:12;54.93;;;24.80;;
1679;SDS011;838;51.794;12.258;2024-03-02T06:02:41;41.87;;;24.37;;
1679;SDS011;838;51.794;12.258;2024-03-02T06:05:07;45.13;;;25.73;;
1679;SDS011;838;51.794;12.258;2024-03-02T06:07:33;39.23;;;24.07;;
1679;SDS011;838;51.794;12.258;2024-03-02T06:09:59;36.67;;;22.57;;
1679;SDS011;838;51.794;12.258;2024-03-02T06:12:25;41.50;;;23.10;;
1679;SDS011;838;51.794;12.258;2024-03-02T06:14:50;36.40;;;23.30;;
1679;SDS011;838;51.794;12.258;2024-03-02T06:17:16;40.50;;;24.83;;
1679;SDS011;838;51.794;12.258;2024-03-02T06:19:42;39.80;;;24.20;;
1679;SDS011;838;51.794;12.258;2024-03-02T06:22:07;39.87;;;24.10;;
1679;SDS011;838;51.794;12.258;2024-03-02T06:24:35;42.17;;;24.13;;
1679;SDS011;838;51.794;12.258;2024-03-02T06:27:02;38.10;;;24.67;;
1679;SDS011;838;51.794;12.258;2024-03-02T06:29:29;45.00;;;25.97;;
1679;SDS011;838;51.794;12.258;2024-03-02T06:31:54;42.80;;;24.20;;
1679;SDS011;838;51.794;12.258;2024-03-02T06:34:20;43.47;;;25.60;;
1679;SDS011;838;51.794;12.258;2024-03-02T06:36:46;44.10;;;24.67;;
1679;SDS011;838;51.794;12.258;2024-03-02T06:39:12;48.90;;;26.00;;
1679;SDS011;838;51.794;12.258;2024-03-02T06:41:38;38.77;;;23.87;;
1679;SDS011;838;51.794;12.258;2024-03-02T06:44:04;42.77;;;25.37;;
1679;SDS011;838;51.794;12.258;2024-03-02T06:46:31;43.57;;;25.47;;
1679;SDS011;838;51.794;12.258;2024-03-02T06:48:57;43.27;;;25.83;;
1679;SDS011;838;51.794;12.258;2024-03-02T06:51:23;44.40;;;26.03;;
1679;SDS011;838;51.794;12.258;2024-03-02T06:53:48;48.57;;;25.33;;
1679;SDS011;838;51.794;12.258;2024-03-02T06:56:14;45.83;;;26.50;;
1679;SDS011;838;51.794;12.258;2024-03-02T06:58:40;44.10;;;25.90;;
1679;SDS011;838;51.794;12.258;2024-03-02T07:01:05;44.13;;;26.27;;
1679;SDS011;838;51.794;12.258;2024-03-02T07:03:31;43.50;;;26.03;;
1679;SDS011;838;51.794;12.258;2024-03-02T07:05:57;46.10;;;26.37;;
1679;SDS011;838;51.794;12.258;2024-03-02T07:08:23;42.03;;;25.87;;
1679;SDS011;838;51.794;12.258;2024-03-02T07:10:49;40.87;;;24.10;;
1679;SDS011;838;51.794;12.258;2024-03-02T07:13:14;41.60;;;26.37;;
1679;SDS011;838;51.794;12.258;2024-03-02T07:15:40;49.47;;;25.47;;
1679;SDS011;838;51.794;12.258;2024-03-02T07:18:12;47.07;;;24.80;;
1679;SDS011;838;51.794;12.258;2024-03-02T07:20:38;37.93;;;23.83;;
1679;SDS011;838;51.794;12.258;2024-03-02T07:23:04;42.47;;;24.30;;
1679;SDS011;838;51.794;12.258;2024-03-02T07:25:30;37.03;;;23.10;;
1679;SDS011;838;51.794;12.258;2024-03-02T07:27:56;37.07;;;21.90;;
1679;SDS011;838;51.794;12.258;2024-03-02T07:30:22;40.90;;;23.10;;
1679;SDS011;838;51.794;12.258;2024-03-02T07:32:49;34.77;;;22.50;;
1679;SDS011;838;51.794;12.258;2024-03-02T07:35:15;42.93;;;24.67;;
1679;SDS011;838;51.794;12.258;2024-03-02T07:37:41;41.13;;;22.90;;
1679;SDS011;838;51.794;12.258;2024-03-02T07:40:08;37.27;;;23.53;;
1679;SDS011;838;51.794;12.258;2024-03-02T07:42:40;38.93;;;21.63;;
1679;SDS011;838;51.794;12.258;2024-03-02T07:45:06;41.33;;;22.50;;
1679;SDS011;838;51.794;12.258;2024-03-02T07:47:35;34.00;;;22.60;;
1679;SDS011;838;51.794;12.258;2024-03-02T07:50:01;39.97;;;23.63;;
1679;SDS011;838;51.794;12.258;2024-03-02T07:52:27;38.00;;;22.10;;
1679;SDS011;838;51.794;12.258;2024-03-02T07:54:52;36.93;;;22.60;;
1679;SDS011;838;51.794;12.258;2024-03-02T07:57:19;39.43;;;22.60;;
1679;SDS011;838;51.794;12.258;2024-03-02T07:59:45;38.87;;;22.07;;
1679;SDS011;838;51.794;12.258;2024-03-02T08:02:10;37.67;;;24.13;;
1679;SDS011;838;51.794;12.258;2024-03-02T08:04:37;38.00;;;23.30;;
1679;SDS011;838;51.794;12.258;2024-03-02T08:07:03;45.43;;;25.73;;
1679;SDS011;838;51.794;12.258;2024-03-02T08:09:29;34.50;;;20.47;;
1679;SDS011;838;51.794;12.258;2024-03-02T08:11:55;34.17;;;23.27;;
1679;SDS011;838;51.794;12.258;2024-03-02T08:14:22;41.10;;;23.03;;
1679;SDS011;838;51.794;12.258;2024-03-02T08:16:48;32.93;;;22.97;;
1679;SDS011;838;51.794;12.258;2024-03-02T08:19:14;31.77;;;20.93;;
1679;SDS011;838;51.794;12.258;2024-03-02T08:21:40;37.23;;;22.30;;
1679;SDS011;838;51.794;12.258;2024-03-02T08:24:06;33.17;;;21.73;;
1679;SDS011;838;51.794;12.258;2024-03-02T08:26:32;36.97;;;22.87;;
1679;SDS011;838;51.794;12.258;2024-03-02T08:28:58;31.87;;;21.20;;
1679;SDS011;838;51.794;12.258;2024-03-02T08:31:24;34.53;;;20.57;;
1679;SDS011;838;51.794;12.258;2024-03-02T08:33:50;43.57;;;21.90;;
1679;SDS011;838;51.794;12.258;2024-03-02T08:36:15;35.17;;;21.57;;
1679;SDS011;838;51.794;12.258;2024-03-02T08:38:41;32.27;;;20.43;;
1679;SDS011;838;51.794;12.258;2024-03-02T08:41:07;33.03;;;20.77;;
1679;SDS011;838;51.794;12.258;2024-03-02T08:43:33;36.23;;;19.27;;
1679;SDS011;838;51.794;12.258;2024-03-02T08:45:59;37.87;;;20.77;;
1679;SDS011;838;51.794;12.258;2024-03-02T08:48:25;34.90;;;22.80;;
1679;SDS011;838;51.794;12.258;2024-03-02T08:50:51;30.60;;;20.00;;
1679;SDS011;838;51.794;12.258;2024-03-02T08:53:16;35.07;;;18.57;;
1679;SDS011;838;51.794;12.258;2024-03-02T08:55:44;25.70;;;17.70;;
1679;SDS011;838;51.794;12.258;2024-03-02T08:58:13;33.43;;;20.80;;
1679;SDS011;838;51.794;12.258;2024-03-02T09:00:38;32.00;;;19.67;;
1679;SDS011;838;51.794;12.258;2024-03-02T09:03:05;30.10;;;18.43;;
1679;SDS011;838;51.794;12.258;2024-03-02T09:05:31;30.67;;;19.87;;
1679;SDS011;838;51.794;12.258;2024-03-02T09:07:56;28.70;;;18.70;;
1679;SDS011;838;51.794;12.258;2024-03-02T09:10:22;27.93;;;17.07;;
1679;SDS011;838;51.794;12.258;2024-03-02T09:12:48;39.17;;;15.37;;
1679;SDS011;838;51.794;12.258;2024-03-02T09:15:13;29.43;;;18.27;;
1679;SDS011;838;51.794;12.258;2024-03-02T09:17:39;29.73;;;17.07;;
1679;SDS011;838;51.794;12.258;2024-03-02T09:20:05;27.77;;;16.97;;
1679;SDS011;838;51.794;12.258;2024-03-02T09:22:31;28.13;;;16.77;;
1679;SDS011;838;51.794;12.258;2024-03-02T09:24:57;30.57;;;18.77;;
1679;SDS011;838;51.794;12.258;2024-03-02T09:27:23;29.13;;;18.60;;
1679;SDS011;838;51.794;12.258;2024-03-02T09:29:49;29.80;;;16.23;;
1679;SDS011;838;51.794;12.258;2024-03-02T09:32:15;26.50;;;16.40;;
1679;SDS011;838;51.794;12.258;2024-03-02T09:34:40;32.57;;;19.40;;
1679;SDS011;838;51.794;12.258;2024-03-02T09:37:06;29.03;;;17.13;;
1679;SDS011;838;51.794;12.258;2024-03-02T09:39:32;28.60;;;17.97;;
1679;SDS011;838;51.794;12.258;2024-03-02T09:41:58;29.77;;;17.83;;
1679;SDS011;838;51.794;12.258;2024-03-02T09:44:24;27.37;;;19.10;;
1679;SDS011;838;51.794;12.258;2024-03-02T09:46:51;31.67;;;19.17;;
1679;SDS011;838;51.794;12.258;2024-03-02T09:49:17;31.30;;;19.60;;
1679;SDS011;838;51.794;12.258;2024-03-02T09:51:47;29.77;;;19.37;;
1679;SDS011;838;51.794;12.258;2024-03-02T09:54:13;29.70;;;17.63;;
1679;SDS011;838;51.794;12.258;2024-03-02T09:56:41;28.93;;;18.50;;
1679;SDS011;838;51.794;12.258;2024-03-02T09:59:06;28.37;;;17.87;;
1679;SDS011;838;51.794;12.258;2024-03-02T10:01:32;30.50;;;18.60;;
1679;SDS011;838;51.794;12.258;2024-03-02T10:03:59;33.20;;;20.30;;
1679;SDS011;838;51.794;12.258;2024-03-02T10:06:25;30.83;;;17.13;;
1679;SDS011;838;51.794;12.258;2024-03-02T10:08:52;28.43;;;17.43;;
1679;SDS011;838;51.794;12.258;2024-03-02T10:11:29;26.07;;;16.33;;
1679;SDS011;838;51.794;12.258;2024-03-02T10:14:08;26.30;;;17.13;;
1679;SDS011;838;51.794;12.258;2024-03-02T10:16:42;24.90;;;16.83;;
1679;SDS011;838;51.794;12.258;2024-03-02T10:19:19;26.33;;;16.90;;
1679;SDS011;838;51.794;12.258;2024-03-02T10:21:50;30.03;;;17.37;;
1679;SDS011;838;51.794;12.258;2024-03-02T10:24:17;26.40;;;17.00;;
1679;SDS011;838;51.794;12.258;2024-03-02T10:26:43;27.53;;;16.07;;
1679;SDS011;838;51.794;12.258;2024-03-02T10:29:10;24.47;;;15.67;;
1679;SDS011;838;51.794;12.258;2024-03-02T10:31:39;25.07;;;16.87;;
1679;SDS011;838;51.794;12.258;2024-03-02T10:34:06;25.27;;;16.60;;
1679;SDS011;838;51.794;12.258;2024-03-02T10:36:33;29.40;;;17.17;;
1679;SDS011;838;51.794;12.258;2024-03-02T10:39:05;22.00;;;13.80;;
1679;SDS011;838;51.794;12.258;2024-03-02T10:41:36;23.90;;;15.30;;
1679;SDS011;838;51.794;12.258;2024-03-02T10:44:03;21.93;;;14.20;;
1679;SDS011;838;51.794;12.258;2024-03-02T10:46:30;24.77;;;15.50;;
1679;SDS011;838;51.794;12.258;2024-03-02T10:48:58;24.53;;;14.77;;
1679;SDS011;838;51.794;12.258;2024-03-02T10:51:27;26.33;;;16.67;;
1679;SDS011;838;51.794;12.258;2024-03-02T10:53:57;24.40;;;15.43;;
1679;SDS011;838;51.794;12.258;2024-03-02T11:01:58;20.90;;;14.27;;
1679;SDS011;838;51.794;12.258;2024-03-02T11:04:26;22.73;;;15.20;;
1679;SDS011;838;51.794;12.258;2024-03-02T11:07:02;21.57;;;14.40;;
1679;SDS011;838;51.794;12.258;2024-03-02T11:09:34;23.37;;;15.30;;
1679;SDS011;838;51.794;12.258;2024-03-02T11:12:03;22.30;;;15.00;;
1679;SDS011;838;51.794;12.258;2024-03-02T11:14:59;22.70;;;13.60;;
1679;SDS011;838;51.794;12.258;2024-03-02T11:17:26;23.47;;;14.77;;
1679;SDS011;838;51.794;12.258;2024-03-02T11:19:52;22.07;;;14.07;;
1679;SDS011;838;51.794;12.258;2024-03-02T11:22:18;20.67;;;13.97;;
1679;SDS011;838;51.794;12.258;2024-03-02T11:24:48;21.50;;;13.00;;
1679;SDS011;838;51.794;12.258;2024-03-02T11:27:14;24.93;;;13.30;;
1679;SDS011;838;51.794;12.258;2024-03-02T11:32:58;21.13;;;11.80;;
1679;SDS011;838;51.794;12.258;2024-03-02T11:35:25;20.50;;;13.63;;
1679;SDS011;838;51.794;12.258;2024-03-02T11:37:51;22.13;;;13.10;;
1679;SDS011;838;51.794;12.258;2024-03-02T11:40:26;16.97;;;9.90;;
1679;SDS011;838;51.794;12.258;2024-03-02T11:42:53;19.53;;;13.90;;
1679;SDS011;838;51.794;12.258;2024-03-02T11:45:22;20.00;;;12.57;;
1679;SDS011;838;51.794;12.258;2024-03-02T11:47:56;18.83;;;11.83;;
1679;SDS011;838;51.794;12.258;2024-03-02T11:50:29;19.80;;;12.00;;
1679;SDS011;838;51.794;12.258;2024-03-02T11:52:58;18.07;;;10.30;;
1679;SDS011;838;51.794;12.258;2024-03-02T11:55:25;17.63;;;11.20;;
1679;SDS011;838;51.794;12.258;2024-03-02T11:57:52;24.03;;;12.67;;
1679;SDS011;838;51.794;12.258;2024-03-02T12:00:18;15.40;;;10.27;;
1679;SDS011;838;51.794;12.258;2024-03-02T12:02:59;13.10;;;9.10;;
1679;SDS011;838;51.794;12.258;2024-03-02T12:05:26;18.07;;;10.53;;
1679;SDS011;838;51.794;12.258;2024-03-02T12:08:02;18.50;;;11.80;;
1679;SDS011;838;51.794;12.258;2024-03-02T12:10:30;16.37;;;10.30;;
1679;SDS011;838;51.794;12.258;2024-03-02T12:12:57;15.90;;;10.57;;
1679;SDS011;838;51.794;12.258;2024-03-02T12:15:26;15.97;;;10.60;;
1679;SDS011;838;51.794;12.258;2024-03-02T12:17:54;15.77;;;10.83;;
1679;SDS011;838;51.794;12.258;2024-03-02T12:20:22;15.10;;;10.53;;
1679;SDS011;838;51.794;12.258;2024-03-02T12:22:52;14.23;;;10.13;;
1679;SDS011;838;51.794;12.258;2024-03-02T12:25:19;14.50;;;10.07;;
1679;SDS011;838;51.794;12.258;2024-03-02T12:27:46;14.90;;;9.80;;
1679;SDS011;838;51.794;12.258;2024-03-02T12:30:14;15.50;;;9.77;;
1679;SDS011;838;51.794;12.258;2024-03-02T12:32:41;14.50;;;8.83;;
1679;SDS011;838;51.794;12.258;2024-03-02T12:35:07;14.83;;;8.30;;
1679;SDS011;838;51.794;12.258;2024-03-02T12:37:33;12.97;;;8.40;;
1679;SDS011;838;51.794;12.258;2024-03-02T12:40:06;15.97;;;10.00;;
1679;SDS011;838;51.794;12.258;2024-03-02T12:42:35;12.70;;;8.27;;
1679;SDS011;838;51.794;12.258;2024-03-02T12:45:01;15.33;;;8.90;;
1679;SDS011;838;51.794;12.258;2024-03-02T12:47:27;13.43;;;8.07;;
1679;SDS011;838;51.794;12.258;2024-03-02T12:49:52;16.50;;;9.17;;
1679;SDS011;838;51.794;12.258;2024-03-02T12:52:19;12.33;;;8.90;;
1679;SDS011;838;51.794;12.258;2024-03-02T12:54:45;13.83;;;8.13;;
1679;SDS011;838;51.794;12.258;2024-03-02T12:57:16;13.03;;;8.53;;
1679;SDS011;838;51.794;12.258;2024-03-02T12:59:44;15.00;;;9.53;;
1679;SDS011;838;51.794;12.258;2024-03-02T13:02:16;14.90;;;8.43;;
1679;SDS011;838;51.794;12.258;2024-03-02T13:04:43;12.77;;;7.00;;
1679;SDS011;838;51.794;12.258;2024-03-02T13:07:10;11.10;;;7.77;;
1679;SDS011;838;51.794;12.258;2024-03-02T13:09:38;11.20;;;7.27;;
1679;SDS011;838;51.794;12.258;2024-03-02T13:12:05;10.90;;;6.00;;
1679;SDS011;838;51.794;12.258;2024-03-02T13:14:35;11.00;;;7.47;;
1679;SDS011;838;51.794;12.258;2024-03-02T13:17:01;12.70;;;7.83;;
1679;SDS011;838;51.794;12.258;2024-03-02T13:19:30;11.90;;;6.50;;
1679;SDS011;838;51.794;12.258;2024-03-02T13:21:56;11.93;;;5.37;;
1679;SDS011;838;51.794;12.258;2024-03-02T13:24:22;11.30;;;6.70;;
1679;SDS011;838;51.794;12.258;2024-03-02T13:26:53;11.37;;;7.07;;
1679;SDS011;838;51.794;12.258;2024-03-02T13:29:22;13.37;;;7.30;;
1679;SDS011;838;51.794;12.258;2024-03-02T13:31:48;9.30;;;5.40;;
1679;SDS011;838;51.794;12.258;2024-03-02T13:34:13;10.20;;;6.50;;
1679;SDS011;838;51.794;12.258;2024-03-02T13:36:39;11.53;;;6.97;;
1679;SDS011;838;51.794;12.258;2024-03-02T13:39:05;11.30;;;6.97;;
1679;SDS011;838;51.794;12.258;2024-03-02T13:41:34;11.20;;;6.37;;
1679;SDS011;838;51.794;12.258;2024-03-02T13:43:59;10.97;;;7.13;;
1679;SDS011;838;51.794;12.258;2024-03-02T13:46:26;10.10;;;6.00;;
1679;SDS011;838;51.794;12.258;2024-03-02T13:48:52;8.77;;;5.40;;
1679;SDS011;838;51.794;12.258;2024-03-02T13:51:19;12.50;;;6.67;;
1679;SDS011;838;51.794;12.258;2024-03-02T13:53:45;11.20;;;7.07;;
1679;SDS011;838;51.794;12.258;2024-03-02T13:56:11;9.67;;;6.90;;
1679;SDS011;838;51.794;12.258;2024-03-02T13:58:37;12.43;;;6.50;;
1679;SDS011;838;51.794;12.258;2024-03-02T14:01:02;9.23;;;6.10;;
1679;SDS011;838;51.794;12.258;2024-03-02T14:03:30;9.53;;;5.80;;
1679;SDS011;838;51.794;12.258;2024-03-02T14:05:56;7.67;;;5.67;;
1679;SDS011;838;51.794;12.258;2024-03-02T14:08:22;7.70;;;5.37;;
1679;SDS011;838;51.794;12.258;2024-03-02T14:10:48;9.30;;;5.60;;
1679;SDS011;838;51.794;12.258;2024-03-02T14:13:14;8.40;;;5.60;;
1679;SDS011;838;51.794;12.258;2024-03-02T14:15:40;8.40;;;5.27;;
1679;SDS011;838;51.794;12.258;2024-03-02T14:18:07;9.67;;;6.20;;
1679;SDS011;838;51.794;12.258;2024-03-02T14:20:35;8.17;;;4.70;;
1679;SDS011;838;51.794;12.258;2024-03-02T14:23:02;7.73;;;5.20;;
1679;SDS011;838;51.794;12.258;2024-03-02T14:25:28;8.73;;;4.23;;
1679;SDS011;838;51.794;12.258;2024-03-02T14:27:56;7.30;;;4.53;;
1679;SDS011;838;51.794;12.258;2024-03-02T14:30:23;9.27;;;5.77;;
1679;SDS011;838;51.794;12.258;2024-03-02T14:32:49;9.97;;;5.40;;
1679;SDS011;838;51.794;12.258;2024-03-02T14:35:16;11.97;;;5.17;;
1679;SDS011;838;51.794;12.258;2024-03-02T14:37:42;7.33;;;4.50;;
1679;SDS011;838;51.794;12.258;2024-03-02T14:40:08;9.53;;;4.50;;
1679;SDS011;838;51.794;12.258;2024-03-02T14:42:35;6.43;;;3.60;;
1679;SDS011;838;51.794;12.258;2024-03-02T14:45:02;9.43;;;5.10;;
1679;SDS011;838;51.794;12.258;2024-03-02T14:47:30;11.33;;;5.37;;
1679;SDS011;838;51.794;12.258;2024-03-02T14:49:57;7.87;;;5.30;;
1679;SDS011;838;51.794;12.258;2024-03-02T14:52:23;9.00;;;5.00;;
1679;SDS011;838;51.794;12.258;2024-03-02T14:54:49;7.47;;;4.60;;
1679;SDS011;838;51.794;12.258;2024-03-02T14:57:15;10.70;;;5.57;;
1679;SDS011;838;51.794;12.258;2024-03-02T14:59:40;8.73;;;5.87;;